Aviation Digital Data Service (ADDS)

Output produced by METARs form (1051 UTC 16 January 2017)
found at http://aviationweather.gov/adds/metars/
 
KART 160906Z 1609/1706 00000KT P6SM OVC035 
     FM161000 20008KT P6SM OVC040 
     FM161400 21010KT P6SM SCT250 
     FM170000 22006KT P6SM FEW250